Puerto del Rosario, Spain
Current Conditions -  °F | °C
As of 5:30 PM on Friday 24 Oct 2014 (Local Time) from GCFV Reporting Station
Clear Clear  
Wind Chill: 25°   Ceiling: Unl
Heat Index: 26°   Visibility: 6mi
Dew Point: 22°   Wind: 6mph
Humidity: 83%   Direction: 60°ENE
Pressure: 29.97"   Gusts: NA
Location:  28.5°N, 13.86°W
Report Text: GCFV 241630Z 06005KT 020V080 CAVOK 25/22 Q1015
Loading
Personal Weather Stations






























Interactive Weather Map
Tropical Storm Tracking
New forecast layout! Learn more

10-Day Weather Forecast

Advertisements
Track Severe Weather on mobile